Time;durP1;ratioP1;P1;durP2;ratioP2;P2;SDS_P1;SDS_P2;PMS_P1;PMS_P2;Temp;Humidity;BMP_temperature;BMP_pressure;BME280_temperature;BME280_humidity;BME280_pressure;Samples;Min_cycle;Max_cycle;Signal;HPM_P1;HPM_P2
2021/05/04 00:02:22;;;;;;;9.82;4.05;;;;;;;11.94;46.78;99775.34;4973426;28;20050;-76
2021/05/04 00:04:48;;;;;;;10.50;4.28;;;;;;;11.95;46.88;99760.88;4988824;28;20133;-77
2021/05/04 00:07:14;;;;;;;7.57;4.15;;;;;;;11.98;46.84;99716.63;5005232;28;20124;-76
2021/05/04 00:09:40;;;;;;;6.68;3.90;;;;;;;11.98;46.81;99699.69;5001722;28;20104;-77
2021/05/04 00:12:05;;;;;;;7.80;3.35;;;;;;;11.99;46.40;99701.31;4988284;28;20422;-76
2021/05/04 00:14:32;;;;;;;6.72;3.53;;;;;;;12.02;46.75;99706.28;4991618;28;20573;-78
2021/05/04 00:16:57;;;;;;;8.70;3.60;;;;;;;12.03;45.94;99686.47;4971212;28;20076;-76
2021/05/04 00:19:23;;;;;;;6.93;3.80;;;;;;;12.02;46.18;99671.34;4983362;28;20043;-78
2021/05/04 00:21:48;;;;;;;8.60;3.83;;;;;;;11.99;46.38;99656.44;4987063;28;20042;-77
2021/05/04 00:24:14;;;;;;;7.63;3.60;;;;;;;12.00;46.57;99655.44;4992388;28;20034;-77
2021/05/04 00:26:39;;;;;;;6.78;3.58;;;;;;;12.02;46.40;99653.34;4973751;28;20141;-75
2021/05/04 00:29:04;;;;;;;9.35;3.72;;;;;;;12.01;46.65;99640.13;4990580;28;20130;-76
2021/05/04 00:31:30;;;;;;;11.80;4.32;;;;;;;12.01;45.79;99610.53;4987560;28;20046;-76
2021/05/04 00:33:56;;;;;;;7.70;3.80;;;;;;;12.02;46.23;99621.09;4987095;28;20086;-75
2021/05/04 00:36:22;;;;;;;10.90;3.83;;;;;;;12.03;46.46;99621.94;4987981;28;20050;-78
2021/05/04 00:38:48;;;;;;;6.30;3.33;;;;;;;12.03;45.94;99584.28;4987424;28;20443;-77
2021/05/04 00:41:14;;;;;;;10.10;3.83;;;;;;;12.04;46.16;99594.00;4986565;28;20081;-78
2021/05/04 00:43:40;;;;;;;9.20;3.78;;;;;;;12.04;46.48;99591.31;4985164;28;20289;-75
2021/05/04 00:46:06;;;;;;;7.78;3.28;;;;;;;12.04;46.16;99578.69;5001890;28;20046;-75
2021/05/04 00:48:31;;;;;;;10.15;3.40;;;;;;;12.03;46.15;99577.06;4997559;28;20076;-79
2021/05/04 00:50:58;;;;;;;9.43;3.15;;;;;;;12.02;46.35;99569.19;4986966;28;20042;-79
2021/05/04 00:53:24;;;;;;;5.85;3.35;;;;;;;12.04;46.07;99556.38;4986983;28;20050;-79
2021/05/04 00:55:51;;;;;;;6.43;3.20;;;;;;;12.05;45.92;99540.00;4994946;28;20691;-76
2021/05/04 00:58:16;;;;;;;7.30;3.50;;;;;;;12.08;46.43;99549.53;5000967;28;20038;-75
2021/05/04 01:00:42;;;;;;;8.45;3.10;;;;;;;12.10;46.09;99547.47;4988146;28;20479;-79
2021/05/04 01:03:09;;;;;;;8.45;3.30;;;;;;;12.10;45.96;99563.63;4986719;28;20038;-78
2021/05/04 01:05:34;;;;;;;5.28;3.00;;;;;;;12.09;46.65;99557.41;4983836;28;20134;-74
2021/05/04 01:08:00;;;;;;;3.83;2.50;;;;;;;12.11;47.08;99538.38;4988446;28;20133;-78
2021/05/04 01:10:26;;;;;;;13.70;2.92;;;;;;;12.06;48.14;99549.75;4987613;28;20057;-75
2021/05/04 01:12:51;;;;;;;11.88;2.92;;;;;;;11.88;49.97;99560.25;4985894;28;20038;-78
2021/05/04 01:15:17;;;;;;;8.10;2.60;;;;;;;11.80;50.52;99553.19;4988855;28;20054;-76
2021/05/04 01:17:42;;;;;;;10.20;2.78;;;;;;;11.66;53.76;99554.16;4967960;28;20054;-78
2021/05/04 01:20:08;;;;;;;6.05;2.83;;;;;;;11.46;56.44;99573.72;4979891;28;20038;-77
2021/05/04 01:22:34;;;;;;;5.55;2.90;;;;;;;11.20;57.42;99554.78;4993410;28;20104;-75
2021/05/04 01:25:00;;;;;;;5.07;2.80;;;;;;;10.99;59.38;99555.66;4984413;28;20046;-75
2021/05/04 01:27:25;;;;;;;4.50;2.40;;;;;;;10.69;61.87;99550.53;4988313;28;20129;-76
2021/05/04 01:29:51;;;;;;;5.28;2.85;;;;;;;10.53;63.93;99556.16;4990515;28;20046;-76
2021/05/04 01:32:17;;;;;;;4.00;2.85;;;;;;;10.41;64.71;99542.47;4990705;28;20046;-82
2021/05/04 01:34:43;;;;;;;5.40;2.53;;;;;;;10.30;65.22;99530.41;4987860;28;20045;-78
2021/05/04 01:37:09;;;;;;;4.53;2.50;;;;;;;10.27;65.78;99538.00;4989448;28;20039;-79
2021/05/04 01:39:42;;;;;;;4.88;2.55;;;;;;;10.23;65.24;99524.13;4986197;28;20049;-79
2021/05/04 01:42:08;;;;;;;4.53;2.65;;;;;;;10.24;64.59;99511.53;4983399;28;20042;-76
2021/05/04 01:44:33;;;;;;;9.20;2.63;;;;;;;10.25;65.23;99516.72;4986493;28;20414;-78
2021/05/04 01:46:58;;;;;;;4.45;2.67;;;;;;;10.20;66.90;99518.31;4988476;28;20042;-77
2021/05/04 01:49:24;;;;;;;5.10;2.40;;;;;;;10.13;66.92;99523.63;4986641;28;20157;-76
2021/05/04 01:51:49;;;;;;;6.30;2.50;;;;;;;10.06;68.32;99536.13;4988052;28;20062;-77
2021/05/04 01:54:14;;;;;;;5.28;2.15;;;;;;;9.92;68.48;99497.66;4987658;28;20038;-76
2021/05/04 01:56:40;;;;;;;4.60;2.28;;;;;;;9.87;69.33;99486.69;4987662;28;20046;-76
2021/05/04 01:59:06;;;;;;;3.53;2.03;;;;;;;9.73;71.11;99517.06;4970859;28;20042;-75
2021/05/04 02:01:31;;;;;;;4.38;2.70;;;;;;;9.62;72.07;99483.56;4986491;28;20034;-79
2021/05/04 02:03:57;;;;;;;6.72;2.40;;;;;;;9.46;73.83;99474.72;5004078;28;20526;-78
2021/05/04 02:06:23;;;;;;;7.22;2.95;;;;;;;9.40;75.34;99496.06;4988800;28;20439;-78
2021/05/04 02:08:48;;;;;;;4.68;2.90;;;;;;;9.30;76.76;99490.19;4988633;28;20050;-75
2021/05/04 02:11:14;;;;;;;9.77;3.67;;;;;;;9.19;77.52;99470.91;4971598;28;20068;-77
2021/05/04 02:13:40;;;;;;;8.00;3.15;;;;;;;9.11;78.88;99492.41;4986186;28;20518;-75
2021/05/04 02:16:05;;;;;;;6.28;2.95;;;;;;;9.01;79.54;99483.88;4983972;28;20038;-76
2021/05/04 02:18:32;;;;;;;6.55;3.05;;;;;;;8.92;80.91;99467.09;4988809;28;20567;-77
2021/05/04 02:20:57;;;;;;;5.82;2.95;;;;;;;8.87;81.53;99471.31;4969615;28;20070;-80
2021/05/04 02:23:22;;;;;;;9.23;3.13;;;;;;;8.75;83.02;99466.44;4970360;28;20513;-77
2021/05/04 02:25:50;;;;;;;7.28;2.83;;;;;;;8.65;84.46;99470.41;4987010;28;20046;-76
2021/05/04 02:28:15;;;;;;;8.35;3.08;;;;;;;8.56;85.58;99473.16;4987791;28;20056;-79
2021/05/04 02:30:41;;;;;;;5.80;2.58;;;;;;;8.49;86.10;99452.69;4986415;28;20057;-80
2021/05/04 02:33:06;;;;;;;8.77;3.20;;;;;;;8.46;86.57;99461.06;4987809;28;20386;-76
2021/05/04 02:35:31;;;;;;;7.45;3.30;;;;;;;8.42;87.44;99457.94;4966827;28;20487;-79
2021/05/04 02:37:57;;;;;;;9.88;3.95;;;;;;;8.33;88.14;99434.94;4989235;28;20050;-77
2021/05/04 02:40:22;;;;;;;10.15;4.40;;;;;;;8.36;87.30;99442.59;4982997;28;20043;-79
2021/05/04 02:42:47;;;;;;;9.63;3.78;;;;;;;8.31;88.23;99442.31;4987051;28;20050;-78
2021/05/04 02:45:14;;;;;;;8.20;3.60;;;;;;;8.25;88.89;99438.50;4980022;28;20154;-77
2021/05/04 02:47:39;;;;;;;6.43;3.50;;;;;;;8.22;89.13;99411.34;4984963;28;20042;-76
2021/05/04 02:50:05;;;;;;;8.60;3.33;;;;;;;8.16;89.52;99431.59;4987014;28;20673;-77
2021/05/04 02:52:31;;;;;;;5.65;2.90;;;;;;;8.12;90.19;99423.13;4987320;28;20038;-78
2021/05/04 02:54:56;;;;;;;8.35;3.08;;;;;;;8.15;88.98;99427.28;4987027;28;20050;-77
2021/05/04 02:57:22;;;;;;;7.32;3.30;;;;;;;8.04;90.88;99417.84;4970467;28;20042;-76
2021/05/04 02:59:47;;;;;;;9.52;3.90;;;;;;;8.00;91.50;99424.56;4971391;28;20129;-79
2021/05/04 03:02:13;;;;;;;10.77;3.50;;;;;;;7.97;91.63;99418.75;4991345;28;20145;-78
2021/05/04 03:04:40;;;;;;;7.28;3.03;;;;;;;7.87;93.80;99411.00;4991280;28;20120;-77
2021/05/04 03:07:05;;;;;;;6.45;3.50;;;;;;;7.88;93.34;99409.97;4989582;28;20042;-77
2021/05/04 03:09:31;;;;;;;5.43;3.03;;;;;;;7.81;94.28;99409.03;4990338;28;20673;-77
2021/05/04 03:11:56;;;;;;;6.78;3.10;;;;;;;7.75;96.35;99401.75;4992623;28;20069;-77
2021/05/04 03:14:24;;;;;;;7.47;3.10;;;;;;;7.72;95.97;99378.91;4989209;28;20053;-77
2021/05/04 03:16:49;;;;;;;8.52;4.03;;;;;;;7.64;97.07;99382.47;4989849;28;20193;-77
2021/05/04 03:19:14;;;;;;;6.13;4.22;;;;;;;7.61;97.72;99400.69;4989798;28;20122;-76
2021/05/04 03:21:40;;;;;;;6.82;4.15;;;;;;;7.57;98.01;99373.53;4987194;28;20125;-76
2021/05/04 03:24:06;;;;;;;8.70;3.97;;;;;;;7.52;98.98;99377.75;4999012;28;20041;-77
2021/05/04 03:26:31;;;;;;;7.75;4.22;;;;;;;7.49;98.53;99359.44;4979895;28;20038;-78
2021/05/04 03:28:56;;;;;;;5.25;3.30;;;;;;;7.47;99.57;99327.56;4992005;28;20779;-76
2021/05/04 03:31:22;;;;;;;6.85;4.40;;;;;;;7.44;98.40;99344.75;4990386;28;20525;-78
2021/05/04 03:33:47;;;;;;;5.93;3.47;;;;;;;7.37;100.00;99333.16;4991228;28;20390;-77
2021/05/04 03:36:14;;;;;;;6.97;3.90;;;;;;;7.43;99.22;99326.28;4990921;28;20046;-77
2021/05/04 03:38:39;;;;;;;7.05;4.25;;;;;;;7.42;99.23;99319.25;5006602;28;20049;-79
2021/05/04 03:41:05;;;;;;;8.65;4.25;;;;;;;7.42;99.17;99324.59;4990721;28;20047;-79
2021/05/04 03:43:30;;;;;;;5.20;4.15;;;;;;;7.40;99.18;99316.78;4983809;28;20043;-77
2021/05/04 03:45:55;;;;;;;7.78;4.07;;;;;;;7.38;99.71;99304.63;4991032;28;20046;-78
2021/05/04 03:48:21;;;;;;;5.75;4.20;;;;;;;7.38;98.35;99291.28;4992236;28;20038;-76
2021/05/04 03:50:48;;;;;;;5.72;4.53;;;;;;;7.33;100.00;99297.16;4990572;28;20042;-75
2021/05/04 03:53:13;;;;;;;6.35;3.80;;;;;;;7.34;100.00;99293.47;4987635;28;20046;-79
2021/05/04 03:55:39;;;;;;;5.15;3.65;;;;;;;7.37;98.84;99278.97;4977151;28;20046;-78
2021/05/04 03:58:04;;;;;;;6.03;4.10;;;;;;;7.37;98.85;99269.09;5003194;28;20046;-79
2021/05/04 04:00:30;;;;;;;5.93;4.00;;;;;;;7.38;98.00;99275.25;4985868;28;20064;-77
2021/05/04 04:02:55;;;;;;;5.07;3.75;;;;;;;7.43;97.54;99256.88;4990407;28;20061;-76
2021/05/04 04:05:21;;;;;;;6.68;3.38;;;;;;;7.42;97.95;99258.72;4988767;28;20084;-78
2021/05/04 04:07:46;;;;;;;6.70;3.65;;;;;;;7.47;96.22;99248.31;4985670;28;20050;-76
2021/05/04 04:10:12;;;;;;;4.75;3.40;;;;;;;7.49;96.43;99258.81;4984769;28;20050;-74
2021/05/04 04:12:41;;;;;;;5.60;3.78;;;;;;;7.47;95.57;99250.97;4984035;28;20117;-77
2021/05/04 04:15:08;;;;;;;5.85;3.55;;;;;;;7.48;96.12;99238.47;4982876;28;20097;-76
2021/05/04 04:17:34;;;;;;;4.88;3.13;;;;;;;7.45;96.57;99242.34;4984128;28;20437;-77
2021/05/04 04:19:59;;;;;;;5.93;3.95;;;;;;;7.49;95.89;99232.13;4980064;28;20046;-78
2021/05/04 04:22:25;;;;;;;5.00;3.58;;;;;;;7.49;96.84;99233.97;4979049;28;20089;-76
2021/05/04 04:24:54;;;;;;;6.40;3.15;;;;;;;7.44;97.08;99231.84;4983304;28;20039;-76
2021/05/04 04:27:20;;;;;;;5.68;3.95;;;;;;;7.44;96.47;99227.31;4987593;28;20038;-76
2021/05/04 04:29:46;;;;;;;6.68;3.97;;;;;;;7.47;96.87;99215.47;4983582;28;20046;-78
2021/05/04 04:32:11;;;;;;;5.60;3.50;;;;;;;7.39;97.73;99211.06;4982916;28;20105;-78
2021/05/04 04:34:36;;;;;;;5.35;3.55;;;;;;;7.41;96.83;99190.31;4985958;28;20081;-77
2021/05/04 04:37:02;;;;;;;5.13;3.30;;;;;;;7.42;97.10;99208.00;4986724;28;20073;-78
2021/05/04 04:39:27;;;;;;;6.22;3.03;;;;;;;7.44;97.22;99179.28;4989665;28;20154;-76
2021/05/04 04:41:53;;;;;;;5.57;3.40;;;;;;;7.48;95.40;99174.44;4987594;28;20074;-78
2021/05/04 04:44:18;;;;;;;4.65;3.33;;;;;;;7.52;95.36;99165.03;4966057;28;20117;-75
2021/05/04 04:46:44;;;;;;;6.72;3.15;;;;;;;7.57;94.96;99183.16;4998634;28;20050;-78
2021/05/04 04:49:15;;;;;;;6.25;2.88;;;;;;;7.56;95.02;99168.16;4983327;28;20038;-77
2021/05/04 04:51:42;;;;;;;7.25;3.08;;;;;;;7.57;95.21;99173.31;4983775;28;20053;-78
2021/05/04 04:54:08;;;;;;;5.43;3.20;;;;;;;7.61;94.14;99171.94;4984471;28;20109;-77
2021/05/04 04:56:34;;;;;;;4.47;3.20;;;;;;;7.65;93.97;99167.03;4987167;28;20067;-77
2021/05/04 04:58:59;;;;;;;4.75;2.88;;;;;;;7.65;94.93;99172.38;4974084;28;20391;-77
2021/05/04 05:01:26;;;;;;;7.05;3.45;;;;;;;7.65;94.32;99159.03;4986561;28;20042;-76
2021/05/04 05:03:51;;;;;;;4.95;3.03;;;;;;;7.64;94.38;99158.19;4983397;28;20887;-76
2021/05/04 05:06:17;;;;;;;6.18;3.33;;;;;;;7.64;94.63;99154.72;5002165;28;20061;-76
2021/05/04 05:08:42;;;;;;;4.20;3.20;;;;;;;7.58;96.11;99158.94;4983957;28;20046;-76
2021/05/04 05:11:08;;;;;;;6.05;3.40;;;;;;;7.57;95.98;99151.97;4980554;28;20042;-76
2021/05/04 05:13:33;;;;;;;5.60;3.65;;;;;;;7.46;97.75;99147.09;4990467;28;20125;-77
2021/05/04 05:15:59;;;;;;;7.32;4.00;;;;;;;7.47;98.00;99157.56;4985583;28;20042;-75
2021/05/04 05:18:25;;;;;;;6.10;3.80;;;;;;;7.43;99.09;99152.78;4986976;28;20077;-77
2021/05/04 05:20:50;;;;;;;5.43;3.97;;;;;;;7.46;97.51;99155.09;4984112;28;20042;-77
2021/05/04 05:23:17;;;;;;;4.47;3.60;;;;;;;7.42;99.75;99146.63;4982144;28;20045;-76
2021/05/04 05:25:42;;;;;;;7.90;3.90;;;;;;;7.45;98.35;99127.56;4982929;28;20078;-76
2021/05/04 05:28:08;;;;;;;6.07;3.40;;;;;;;7.51;97.94;99099.31;4982259;28;20464;-76
2021/05/04 05:30:34;;;;;;;5.45;2.95;;;;;;;7.56;97.59;99130.78;4971700;28;20050;-78
2021/05/04 05:32:59;;;;;;;7.03;3.85;;;;;;;7.60;97.13;99118.72;4984519;28;20394;-78
2021/05/04 05:35:25;;;;;;;5.65;3.20;;;;;;;7.70;95.61;99124.59;4986581;28;20038;-78
2021/05/04 05:37:50;;;;;;;4.78;2.90;;;;;;;7.74;95.66;99109.88;4984314;28;20644;-75
2021/05/04 05:40:16;;;;;;;6.57;3.30;;;;;;;7.81;95.34;99099.25;4996244;28;20507;-78
2021/05/04 05:42:42;;;;;;;5.55;2.70;;;;;;;7.87;93.87;99112.69;4983350;28;20043;-75
2021/05/04 05:45:09;;;;;;;6.03;2.83;;;;;;;7.94;93.08;99095.91;4985202;28;20058;-78
2021/05/04 05:47:35;;;;;;;6.07;2.88;;;;;;;8.01;92.49;99102.16;4991871;28;20046;-77
2021/05/04 05:50:02;;;;;;;6.63;2.72;;;;;;;8.04;91.86;99093.78;4978671;28;20057;-76
2021/05/04 05:52:28;;;;;;;6.47;3.00;;;;;;;8.12;91.36;99104.34;4979471;28;20142;-78
2021/05/04 05:54:53;;;;;;;5.63;2.75;;;;;;;8.18;90.81;99089.41;4969991;28;20189;-78
2021/05/04 05:57:18;;;;;;;4.90;2.97;;;;;;;8.24;90.08;99062.72;4987997;28;20053;-77
2021/05/04 05:59:44;;;;;;;4.85;2.65;;;;;;;8.29;90.38;99075.53;4986700;28;20376;-77
2021/05/04 06:02:09;;;;;;;5.32;2.40;;;;;;;8.35;90.30;99058.72;4987924;28;20042;-77
2021/05/04 06:04:34;;;;;;;5.32;2.70;;;;;;;8.41;89.52;99082.03;4986736;28;20034;-76
2021/05/04 06:07:01;;;;;;;5.72;2.40;;;;;;;8.49;89.72;99105.97;4987489;28;20115;-77
2021/05/04 06:09:26;;;;;;;4.50;2.53;;;;;;;8.54;89.27;99043.88;4986297;28;20046;-76
2021/05/04 06:11:51;;;;;;;4.88;2.80;;;;;;;8.59;89.35;99084.25;4989486;28;20042;-78
2021/05/04 06:14:17;;;;;;;4.95;2.40;;;;;;;8.59;89.56;99092.28;4987228;28;20085;-77
2021/05/04 06:16:43;;;;;;;5.43;2.40;;;;;;;8.61;90.14;99070.69;4998593;28;20145;-77
2021/05/04 06:19:08;;;;;;;4.95;2.20;;;;;;;8.58;90.24;99069.22;4984570;28;20039;-78
2021/05/04 06:21:34;;;;;;;4.13;2.30;;;;;;;8.53;91.75;99061.78;4981219;28;20038;-77
2021/05/04 06:23:59;;;;;;;3.70;2.45;;;;;;;8.53;91.92;99064.44;4984977;28;20042;-77
2021/05/04 06:26:24;;;;;;;5.32;2.72;;;;;;;8.51;92.29;99074.50;4981987;28;20058;-79
2021/05/04 06:28:50;;;;;;;4.30;2.80;;;;;;;8.57;92.67;99054.19;4988045;28;20053;-77
2021/05/04 06:31:17;;;;;;;4.18;2.75;;;;;;;8.55;92.52;99058.94;4985572;28;20149;-76
2021/05/04 06:33:43;;;;;;;4.43;2.80;;;;;;;8.57;92.49;99071.09;4988133;28;20509;-78
2021/05/04 06:36:09;;;;;;;5.32;2.72;;;;;;;8.55;92.67;99054.41;4985129;28;20129;-77
2021/05/04 06:38:35;;;;;;;4.38;3.10;;;;;;;8.54;92.82;99046.56;4970602;28;20134;-77
2021/05/04 06:41:01;;;;;;;5.35;3.15;;;;;;;8.51;94.40;99069.16;4985144;28;20462;-76
2021/05/04 06:43:27;;;;;;;6.03;3.05;;;;;;;8.45;95.37;99040.53;4989011;28;20049;-76
2021/05/04 06:45:53;;;;;;;4.30;2.70;;;;;;;8.47;96.07;99061.75;4982045;28;20038;-79
2021/05/04 06:48:18;;;;;;;6.65;3.50;;;;;;;8.44;95.38;99051.44;4989556;28;20038;-79
2021/05/04 06:50:43;;;;;;;7.20;3.40;;;;;;;8.45;95.75;99058.41;4985715;28;20039;-77
2021/05/04 06:53:09;;;;;;;6.38;3.70;;;;;;;8.43;96.42;99065.78;4979341;28;20066;-77
2021/05/04 06:55:34;;;;;;;4.20;3.25;;;;;;;8.36;95.63;99050.50;5002540;28;20038;-78
2021/05/04 06:58:00;;;;;;;5.18;3.42;;;;;;;8.39;96.33;99048.50;4989179;28;20046;-77
2021/05/04 07:00:25;;;;;;;6.85;3.67;;;;;;;8.36;96.23;99044.34;4985896;28;20049;-77
2021/05/04 07:02:51;;;;;;;4.97;3.80;;;;;;;8.28;97.58;99049.81;5000827;28;20043;-76
2021/05/04 07:05:17;;;;;;;3.85;3.05;;;;;;;8.32;96.72;99048.41;4984878;28;20610;-77
2021/05/04 07:07:42;;;;;;;3.97;3.25;;;;;;;8.33;96.58;99029.50;4984185;28;20042;-76
2021/05/04 07:10:08;;;;;;;5.05;3.10;;;;;;;8.42;95.00;99042.78;4987165;28;20042;-78
2021/05/04 07:12:33;;;;;;;8.82;3.30;;;;;;;8.45;94.56;99039.72;4994656;28;20046;-79
2021/05/04 07:14:59;;;;;;;6.32;3.35;;;;;;;8.54;93.78;99033.19;4987045;28;20043;-78
2021/05/04 07:17:26;;;;;;;5.65;2.92;;;;;;;8.64;93.44;99014.16;4986145;28;20391;-78
2021/05/04 07:19:54;;;;;;;5.30;3.38;;;;;;;8.71;93.15;99029.22;4986987;28;20057;-78
2021/05/04 07:22:22;;;;;;;6.25;3.50;;;;;;;8.79;91.96;99004.16;4986803;28;20038;-77
2021/05/04 07:24:47;;;;;;;6.03;2.47;;;;;;;8.87;89.96;99012.03;4983735;28;20038;-77
2021/05/04 07:27:13;;;;;;;4.88;2.35;;;;;;;8.96;89.08;99029.59;4987859;28;20506;-77
2021/05/04 07:29:38;;;;;;;6.82;3.05;;;;;;;9.04;89.05;99017.91;4985932;28;20046;-78
2021/05/04 07:32:04;;;;;;;5.80;2.45;;;;;;;9.04;89.13;99026.75;4986984;28;20124;-77
2021/05/04 07:34:30;;;;;;;4.55;2.60;;;;;;;9.02;91.64;99033.31;4968812;28;20061;-76
2021/05/04 07:36:55;;;;;;;6.07;2.75;;;;;;;8.94;93.84;99030.78;4981153;28;20437;-76
2021/05/04 07:39:20;;;;;;;4.70;2.85;;;;;;;8.79;95.97;99050.47;4987473;28;20369;-78
2021/05/04 07:41:46;;;;;;;5.88;2.90;;;;;;;8.63;97.35;99037.41;4980262;28;20395;-77
2021/05/04 07:44:11;;;;;;;6.30;3.08;;;;;;;8.54;99.96;99060.75;4987338;28;20145;-78
2021/05/04 07:46:37;;;;;;;5.65;2.90;;;;;;;8.51;100.00;99052.28;4983363;28;20053;-77
2021/05/04 07:49:04;;;;;;;6.70;3.17;;;;;;;8.47;100.00;99072.44;4988671;28;20714;-78
2021/05/04 07:51:30;;;;;;;9.15;3.40;;;;;;;8.40;100.00;99042.13;4992343;28;20038;-78
2021/05/04 07:53:55;;;;;;;8.30;3.10;;;;;;;8.39;100.00;99043.97;4989491;28;20391;-79
2021/05/04 07:56:21;;;;;;;4.53;3.10;;;;;;;8.43;100.00;99028.38;4987466;28;20097;-78
2021/05/04 07:58:46;;;;;;;4.15;2.83;;;;;;;8.49;100.00;99054.34;4983877;28;20093;-78
2021/05/04 08:01:11;;;;;;;5.07;2.75;;;;;;;8.52;100.00;99028.06;4974560;28;20133;-77
2021/05/04 08:03:37;;;;;;;5.25;2.38;;;;;;;8.54;100.00;99035.88;4970588;28;20649;-77
2021/05/04 08:06:03;;;;;;;6.63;2.67;;;;;;;8.54;100.00;99030.53;4990383;28;20446;-76
2021/05/04 08:08:28;;;;;;;5.47;2.80;;;;;;;8.54;100.00;99054.59;5007126;28;20093;-77
2021/05/04 08:10:54;;;;;;;5.43;2.45;;;;;;;8.52;100.00;99107.44;4989924;28;20054;-77
2021/05/04 08:13:20;;;;;;;7.05;2.60;;;;;;;8.53;100.00;99039.56;4991236;28;20043;-77
2021/05/04 08:15:48;;;;;;;3.22;2.00;;;;;;;8.51;100.00;99036.25;4987730;28;20109;-77
2021/05/04 08:18:15;;;;;;;5.20;2.30;;;;;;;8.51;100.00;99052.28;4990486;28;20046;-78
2021/05/04 08:21:14;;;;;;;7.32;2.58;;;;;;;8.52;100.00;99054.78;4988028;28;20511;-77
2021/05/04 08:23:32;;;;;;;3.78;1.88;;;;;;;8.54;100.00;99054.59;4986696;28;20042;-78
2021/05/04 08:25:58;;;;;;;7.15;2.28;;;;;;;8.55;100.00;99040.22;4989534;28;20034;-76
2021/05/04 08:28:23;;;;;;;4.78;2.10;;;;;;;8.57;100.00;99024.78;4990024;28;20038;-77
2021/05/04 08:30:51;;;;;;;5.05;3.17;;;;;;;8.60;100.00;99035.09;4986745;28;20053;-76
2021/05/04 08:33:17;;;;;;;4.05;2.53;;;;;;;8.57;100.00;99028.31;4997067;28;20061;-77
2021/05/04 08:35:43;;;;;;;7.30;2.85;;;;;;;8.63;100.00;98991.09;4982890;28;20042;-76
2021/05/04 08:38:08;;;;;;;4.38;2.55;;;;;;;8.65;100.00;99003.25;4984429;28;20089;-76
2021/05/04 08:40:34;;;;;;;4.22;2.05;;;;;;;8.66;100.00;99012.09;5001775;28;20038;-78
2021/05/04 08:43:01;;;;;;;5.30;2.67;;;;;;;8.76;100.00;99010.72;4987359;28;20077;-78
2021/05/04 08:45:30;;;;;;;4.95;3.10;;;;;;;8.86;100.00;99012.22;4997477;28;20054;-78
2021/05/04 08:47:55;;;;;;;4.53;3.10;;;;;;;8.91;100.00;99036.53;4985656;28;20049;-79
2021/05/04 08:50:21;;;;;;;6.45;3.05;;;;;;;8.95;100.00;99016.41;4989436;28;20356;-79
2021/05/04 08:52:51;;;;;;;5.38;3.10;;;;;;;9.07;100.00;99030.88;4986037;28;20100;-78
2021/05/04 08:55:18;;;;;;;7.35;3.35;;;;;;;9.24;100.00;99026.03;4986295;28;20050;-79
2021/05/04 08:57:43;;;;;;;6.28;3.00;;;;;;;9.29;100.00;99012.88;4983100;28;20478;-77
2021/05/04 09:00:11;;;;;;;5.22;2.90;;;;;;;9.36;100.00;99012.91;4995990;28;20088;-80
2021/05/04 09:02:55;;;;;;;6.90;3.53;;;;;;;9.54;100.00;99012.34;4982893;28;20100;-79
2021/05/04 09:05:20;;;;;;;4.85;2.90;;;;;;;9.66;99.62;99003.53;5001143;28;20113;-78
2021/05/04 09:07:46;;;;;;;4.95;2.53;;;;;;;9.67;96.55;99009.72;4983321;28;20046;-76
2021/05/04 09:13:07;;;;;;;4.80;2.20;;;;;;;9.82;95.54;98998.84;4993899;28;20065;-79
2021/05/04 09:16:13;;;;;;;4.22;2.38;;;;;;;9.93;94.51;98998.25;4978692;28;20051;-78
2021/05/04 09:21:26;;;;;;;6.60;2.50;;;;;;;9.91;90.95;99000.31;4986310;28;20043;-79
2021/05/04 09:23:51;;;;;;;6.57;2.40;;;;;;;9.94;90.52;99005.25;4971422;28;20414;-77
2021/05/04 09:26:21;;;;;;;7.40;2.70;;;;;;;9.95;91.03;98993.50;4987293;28;20105;-78
2021/05/04 09:28:51;;;;;;;7.50;2.58;;;;;;;9.95;90.18;98996.16;4967708;28;20050;-78
2021/05/04 09:31:25;;;;;;;5.75;2.38;;;;;;;9.96;89.79;98986.31;4985749;28;20073;-79
2021/05/04 09:33:51;;;;;;;6.10;1.83;;;;;;;9.92;89.72;98985.88;4978003;28;20058;-78
2021/05/04 09:36:38;;;;;;;6.28;2.10;;;;;;;9.95;90.84;98993.50;4996225;28;20043;-77
2021/05/04 09:39:04;;;;;;;5.15;1.50;;;;;;;9.76;91.35;99015.72;5010470;28;20046;-77
2021/05/04 09:41:31;;;;;;;4.20;1.80;;;;;;;9.53;93.43;99016.91;4985560;28;20046;-77
2021/05/04 09:43:56;;;;;;;4.30;1.70;;;;;;;9.34;96.11;99004.25;4984906;28;20046;-79
2021/05/04 09:46:48;;;;;;;3.03;1.67;;;;;;;9.17;97.17;98985.84;4987355;28;20042;-76
2021/05/04 09:49:26;;;;;;;4.35;1.63;;;;;;;9.04;98.48;99007.22;4997405;28;20046;-78
2021/05/04 09:51:53;;;;;;;4.53;1.60;;;;;;;8.99;97.34;99009.63;4982038;28;20076;-77
2021/05/04 09:54:29;;;;;;;4.57;1.50;;;;;;;9.18;98.64;98984.03;4984460;28;20057;-77
2021/05/04 09:56:55;;;;;;;2.95;1.38;;;;;;;9.40;99.97;98982.84;4983390;28;20038;-77
2021/05/04 09:59:23;;;;;;;6.28;1.45;;;;;;;9.40;96.15;99008.78;4984493;28;20057;-78
2021/05/04 10:01:49;;;;;;;2.75;1.30;;;;;;;9.47;96.46;98972.19;4986304;28;20050;-79
2021/05/04 10:04:17;;;;;;;4.22;1.60;;;;;;;9.58;96.20;98966.25;4989596;28;20108;-77
2021/05/04 10:06:43;;;;;;;3.78;1.60;;;;;;;9.78;96.31;98968.97;4980817;28;20049;-80
2021/05/04 10:09:09;;;;;;;5.38;1.67;;;;;;;10.00;96.43;98969.59;4986733;28;20046;-79
2021/05/04 10:11:35;;;;;;;6.03;1.90;;;;;;;10.19;96.13;98964.47;4985027;28;20436;-79
2021/05/04 10:14:01;;;;;;;5.78;2.00;;;;;;;10.35;92.52;98950.66;4987618;28;20125;-79
2021/05/04 10:16:28;;;;;;;5.78;1.80;;;;;;;10.52;90.21;98948.38;4988658;28;20144;-79
2021/05/04 10:19:02;;;;;;;6.03;2.22;;;;;;;10.64;87.51;98949.38;4990256;28;20050;-78
2021/05/04 10:21:28;;;;;;;6.88;1.80;;;;;;;10.76;85.63;98931.63;4981697;28;20050;-78
2021/05/04 10:23:54;;;;;;;9.73;2.20;;;;;;;10.92;84.17;98970.56;4983444;28;20038;-78
2021/05/04 10:26:21;;;;;;;5.68;1.90;;;;;;;11.04;80.60;98958.13;4986151;28;20042;-79
2021/05/04 10:28:53;;;;;;;11.40;2.38;;;;;;;11.06;80.63;98958.75;4996821;28;20611;-77
2021/05/04 10:31:32;;;;;;;6.05;1.63;;;;;;;11.04;78.31;98936.66;4996322;28;20435;-77
2021/05/04 10:34:17;;;;;;;;;;;;;;;10.92;78.52;98941.06;4984709;28;20051;-77
2021/05/04 10:36:42;;;;;;;5.60;2.00;;;;;;;10.80;79.39;98965.03;4982934;28;19924;-77
2021/05/04 10:39:08;;;;;;;6.32;1.85;;;;;;;10.75;79.44;98958.66;4998367;28;20447;-77
2021/05/04 10:41:54;;;;;;;6.68;2.00;;;;;;;10.74;81.11;98973.91;4982193;28;20077;-77
2021/05/04 10:44:19;;;;;;;5.18;2.10;;;;;;;10.55;83.52;98972.91;5008850;28;20073;-76
2021/05/04 10:46:44;;;;;;;8.85;2.05;;;;;;;10.23;86.72;99021.97;4983562;28;20487;-78
2021/05/04 10:49:18;;;;;;;6.35;1.73;;;;;;;9.77;90.87;99014.69;4968466;28;20070;-78
2021/05/04 10:51:49;;;;;;;8.23;2.15;;;;;;;9.44;93.39;99013.56;4981344;28;20039;-78
2021/05/04 10:54:18;;;;;;;6.05;2.25;;;;;;;9.34;96.81;99002.38;4985848;28;20132;-78
2021/05/04 10:56:56;;;;;;;10.38;2.90;;;;;;;9.23;97.97;99013.66;4980050;28;20042;-78
2021/05/04 10:59:22;;;;;;;11.30;3.55;;;;;;;9.03;97.44;99019.75;5000566;28;20050;-78
2021/05/04 11:02:17;;;;;;;8.27;2.85;;;;;;;8.86;96.69;99042.50;4981037;28;20054;-77
2021/05/04 11:04:52;;;;;;;7.72;2.60;;;;;;;8.84;96.54;99062.44;4970288;28;20105;-77
2021/05/04 11:07:51;;;;;;;6.45;1.92;;;;;;;8.61;93.10;99047.47;4978696;28;20104;-76
2021/05/04 11:10:16;;;;;;;7.45;2.60;;;;;;;8.63;94.09;99063.28;4964190;28;20053;-76
2021/05/04 11:12:42;;;;;;;7.68;1.90;;;;;;;8.61;90.96;99074.19;4981388;28;20046;-76
2021/05/04 11:15:25;;;;;;;6.45;1.75;;;;;;;8.72;88.78;99084.38;4983403;28;20050;-78
2021/05/04 11:17:51;;;;;;;7.10;2.92;;;;;;;8.87;89.48;99086.13;4982396;28;20105;-77
2021/05/04 11:20:30;;;;;;;4.85;1.80;;;;;;;8.90;88.72;99099.94;4984826;28;20044;-78
2021/05/04 11:22:56;;;;;;;4.53;1.45;;;;;;;8.86;84.34;99077.28;4979587;28;20053;-78
2021/05/04 11:25:37;;;;;;;2.85;1.08;;;;;;;8.95;84.60;99080.63;4999984;28;20534;-77
2021/05/04 11:28:03;;;;;;;3.55;0.98;;;;;;;9.00;81.83;99100.38;4988765;28;20125;-79
2021/05/04 11:30:41;;;;;;;3.88;0.95;;;;;;;9.17;81.79;99098.25;4988255;28;20046;-78
2021/05/04 11:33:25;;;;;;;2.35;1.00;;;;;;;9.37;80.56;99098.38;5014323;28;20046;-79
2021/05/04 11:35:53;;;;;;;7.22;1.52;;;;;;;9.51;80.72;99104.63;4987676;28;20081;-79
2021/05/04 11:38:20;;;;;;;4.55;1.67;;;;;;;9.73;79.34;99117.91;4997926;28;20494;-79
2021/05/04 11:40:47;;;;;;;9.30;1.40;;;;;;;9.92;79.29;99103.75;4986110;28;20035;-77
2021/05/04 11:43:17;;;;;;;4.80;1.58;;;;;;;9.96;78.40;99117.59;4982531;28;20043;-78
2021/05/04 11:45:43;;;;;;;4.63;1.48;;;;;;;10.01;76.60;99072.25;5003077;28;20142;-77